Time;durP1;ratioP1;P1;durP2;ratioP2;P2;SDS_P1;SDS_P2;PMS_P1;PMS_P2;Temp;Humidity;BMP_temperature;BMP_pressure;BME280_temperature;BME280_humidity;BME280_pressure;Samples;Min_cycle;Max_cycle;Signal;HPM_P1;HPM_P2
2023/06/06 00:00:19;;;;;;;2.33;0.80;;;;;;;18.78;53.28;99417.97;6097263;23;20587;-86
2023/06/06 00:02:46;;;;;;;2.27;0.77;;;;;;;18.73;53.48;99414.00;6097232;23;20621;-86
2023/06/06 00:05:15;;;;;;;3.90;1.20;;;;;;;18.70;53.67;99417.75;6097605;23;20156;-86
2023/06/06 00:07:43;;;;;;;2.47;0.73;;;;;;;18.71;54.15;99415.94;6097154;23;20153;-86
2023/06/06 00:10:11;;;;;;;1.60;0.70;;;;;;;18.65;53.82;99409.31;6120222;23;20157;-86
2023/06/06 00:12:41;;;;;;;1.63;0.60;;;;;;;18.64;54.07;99415.56;6097236;23;20152;-86
2023/06/06 00:15:09;;;;;;;2.87;0.90;;;;;;;18.62;53.95;99409.56;6097331;23;20488;-86
2023/06/06 00:17:38;;;;;;;2.30;0.90;;;;;;;18.56;53.99;99411.84;6097227;23;20221;-86
2023/06/06 00:20:08;;;;;;;1.90;0.90;;;;;;;18.53;53.97;99410.28;6097735;23;20592;-86
2023/06/06 00:22:36;;;;;;;6.40;1.00;;;;;;;18.55;53.87;99415.50;6097458;23;20173;-86
2023/06/06 00:25:03;;;;;;;2.93;1.07;;;;;;;18.51;53.85;99409.56;6095717;23;20534;-86
2023/06/06 00:27:34;;;;;;;5.07;1.07;;;;;;;18.46;53.92;99408.22;6097109;23;20160;-86
2023/06/06 00:30:01;;;;;;;3.87;1.20;;;;;;;18.39;54.28;99407.88;6097147;23;20147;-86
2023/06/06 00:32:28;;;;;;;1.93;0.83;;;;;;;18.31;54.80;99408.50;6097101;23;20223;-86
2023/06/06 00:34:58;;;;;;;1.93;0.80;;;;;;;18.27;55.38;99408.84;6097418;23;20231;-86
2023/06/06 00:37:25;;;;;;;4.40;0.70;;;;;;;18.24;55.68;99409.09;6097714;23;20155;-86
2023/06/06 00:39:50;;;;;;;1.53;0.53;;;;;;;18.22;56.17;99411.03;6097065;23;20149;-86
2023/06/06 00:42:17;;;;;;;4.10;0.70;;;;;;;18.15;56.38;99415.13;6097055;23;20215;-86
2023/06/06 00:44:43;;;;;;;4.50;0.47;;;;;;;18.14;56.89;99406.31;6096965;23;20149;-86
2023/06/06 00:47:11;;;;;;;5.87;1.03;;;;;;;18.12;56.81;99407.41;6097366;23;20191;-86
2023/06/06 00:49:37;;;;;;;2.47;0.87;;;;;;;18.03;57.16;99402.84;6097267;23;20583;-86
2023/06/06 00:52:03;;;;;;;2.20;0.80;;;;;;;17.97;57.83;99408.63;6096916;23;20499;-86
2023/06/06 00:54:31;;;;;;;3.33;1.10;;;;;;;17.88;58.54;99414.63;6096856;23;20192;-86
2023/06/06 00:56:56;;;;;;;5.10;1.13;;;;;;;17.80;58.71;99417.88;6097287;23;20472;-86
2023/06/06 00:59:23;;;;;;;5.37;1.43;;;;;;;17.70;59.20;99412.47;6119984;23;20160;-86
2023/06/06 01:01:49;;;;;;;3.03;1.23;;;;;;;17.73;58.94;99406.06;6097593;23;20669;-86
2023/06/06 01:04:15;;;;;;;4.97;1.03;;;;;;;17.71;58.38;99403.53;6096922;23;20272;-86
2023/06/06 01:06:42;;;;;;;3.13;0.80;;;;;;;17.67;58.36;99403.88;6120005;23;20243;-86
2023/06/06 01:09:12;;;;;;;5.40;1.03;;;;;;;17.65;58.44;99408.47;6096834;23;20515;-86
2023/06/06 01:12:10;;;;;;;4.67;1.10;;;;;;;17.66;58.38;99416.28;6097487;23;20244;-86
2023/06/06 01:15:03;;;;;;;7.37;1.10;;;;;;;17.59;58.58;99407.13;6098931;23;20156;-86
2023/06/06 01:17:33;;;;;;;2.20;0.80;;;;;;;17.51;58.99;99408.66;6098916;23;20141;-86
2023/06/06 01:20:00;;;;;;;5.37;1.37;;;;;;;17.42;59.12;99418.16;6097704;23;20247;-86
2023/06/06 01:22:28;;;;;;;1.50;0.70;;;;;;;17.42;58.80;99415.50;6098864;23;20145;-86
2023/06/06 01:24:56;;;;;;;3.40;1.07;;;;;;;17.42;59.06;99412.88;6097542;23;20565;-86
2023/06/06 01:27:23;;;;;;;4.33;0.90;;;;;;;17.41;59.16;99418.25;6098831;23;20179;-86
2023/06/06 01:29:51;;;;;;;1.40;0.60;;;;;;;17.30;59.52;99416.41;6098865;23;20228;-86
2023/06/06 01:32:45;;;;;;;2.50;1.00;;;;;;;17.20;60.01;99418.09;6098674;23;20148;-86
2023/06/06 01:35:40;;;;;;;2.63;1.00;;;;;;;17.10;60.29;99425.03;6099483;23;20166;-86
2023/06/06 01:38:25;;;;;;;4.47;1.37;;;;;;;17.01;60.39;99421.25;6098947;23;20166;-86
2023/06/06 01:40:56;;;;;;;2.60;0.80;;;;;;;16.95;60.44;99419.09;6099125;23;20140;-86
2023/06/06 01:43:26;;;;;;;2.60;0.90;;;;;;;16.95;60.36;99426.19;6099129;23;20147;-86
2023/06/06 01:45:54;;;;;;;13.53;0.97;;;;;;;16.94;60.18;99417.38;6098659;23;20494;-86
2023/06/06 01:48:22;;;;;;;2.93;0.90;;;;;;;17.00;59.85;99416.09;6098486;23;20191;-86
2023/06/06 01:50:49;;;;;;;2.43;1.03;;;;;;;16.96;59.56;99419.91;6097380;23;20157;-86
2023/06/06 01:53:16;;;;;;;2.53;0.83;;;;;;;16.90;59.77;99417.72;6097286;23;20192;-86
2023/06/06 01:55:42;;;;;;;3.10;1.50;;;;;;;16.87;59.65;99421.44;6098867;23;20152;-86
2023/06/06 01:58:09;;;;;;;5.50;0.80;;;;;;;16.83;60.16;99413.81;6098456;23;20163;-86
2023/06/06 02:00:35;;;;;;;2.40;1.27;;;;;;;16.76;60.86;99425.84;6098864;23;20152;-86
2023/06/06 02:03:01;;;;;;;8.07;0.63;;;;;;;16.66;61.21;99427.47;6098790;23;20674;-86
2023/06/06 02:05:29;;;;;;;3.50;0.60;;;;;;;16.63;61.23;99430.31;6121839;23;20488;-86
2023/06/06 02:07:55;;;;;;;3.10;0.70;;;;;;;16.64;60.96;99427.56;6098771;23;20148;-86
2023/06/06 02:10:21;;;;;;;2.13;0.90;;;;;;;16.69;60.35;99429.88;6098341;23;20152;-86
2023/06/06 02:12:46;;;;;;;3.20;1.00;;;;;;;16.69;60.27;99436.03;6098276;23;20526;-86
2023/06/06 02:15:14;;;;;;;4.20;1.10;;;;;;;16.66;60.04;99435.41;6098357;23;20211;-86
2023/06/06 02:17:41;;;;;;;2.30;0.97;;;;;;;16.59;60.23;99433.19;6097083;23;20495;-86
2023/06/06 02:20:10;;;;;;;2.37;0.77;;;;;;;16.57;60.24;99435.13;6098359;23;20264;-86
2023/06/06 02:22:38;;;;;;;1.83;0.80;;;;;;;16.50;60.91;99428.56;6097968;23;20149;-86
2023/06/06 02:25:05;;;;;;;2.87;1.20;;;;;;;16.51;61.28;99434.66;6098150;23;20164;-86
2023/06/06 02:27:35;;;;;;;4.30;0.97;;;;;;;16.48;61.59;99432.25;6098181;23;20149;-86
2023/06/06 02:30:03;;;;;;;5.40;1.33;;;;;;;16.44;62.09;99431.63;6098593;23;20148;-86
2023/06/06 02:32:30;;;;;;;2.07;0.80;;;;;;;16.44;62.15;99428.97;6098078;23;20259;-86
2023/06/06 02:34:57;;;;;;;5.83;2.30;;;;;;;16.41;62.37;99434.50;6096919;23;20480;-86
2023/06/06 02:37:24;;;;;;;9.03;0.90;;;;;;;16.43;62.13;99431.75;6098368;23;20149;-86
2023/06/06 02:39:51;;;;;;;4.97;1.17;;;;;;;16.41;62.19;99439.78;6098494;23;20148;-86
2023/06/06 02:42:17;;;;;;;2.63;1.20;;;;;;;16.39;62.35;99432.91;6098458;23;20148;-86
2023/06/06 02:44:44;;;;;;;6.53;1.13;;;;;;;16.40;62.45;99435.44;6096875;23;20591;-86
2023/06/06 02:47:11;;;;;;;3.90;1.23;;;;;;;16.39;63.31;99427.63;6098620;23;20171;-86
2023/06/06 02:49:38;;;;;;;3.20;1.10;;;;;;;16.43;63.78;99432.56;6098643;23;20250;-86
2023/06/06 02:52:05;;;;;;;8.93;2.70;;;;;;;16.49;64.03;99432.13;6098279;23;20152;-86
2023/06/06 02:54:31;;;;;;;4.67;2.10;;;;;;;16.56;64.44;99444.00;6096715;23;20577;-86
2023/06/06 02:56:58;;;;;;;5.37;2.07;;;;;;;16.69;64.87;99435.19;6097827;23;20159;-86
2023/06/06 02:59:24;;;;;;;4.23;1.30;;;;;;;16.81;65.64;99436.94;6098196;23;20163;-87
2023/06/06 03:01:51;;;;;;;4.23;1.60;;;;;;;16.84;65.65;99432.25;6097813;23;20635;-86
2023/06/06 03:04:18;;;;;;;3.20;1.43;;;;;;;16.83;65.89;99435.00;6098308;23;20545;-87
2023/06/06 03:06:45;;;;;;;5.80;3.47;;;;;;;16.74;66.51;99438.34;6097865;23;20159;-87
2023/06/06 03:09:12;;;;;;;6.23;2.80;;;;;;;16.67;65.88;99442.38;6097744;23;20508;-87
2023/06/06 03:11:39;;;;;;;5.67;2.53;;;;;;;16.63;65.24;99444.41;6097632;23;20234;-87
2023/06/06 03:14:06;;;;;;;6.90;2.30;;;;;;;16.59;64.86;99443.78;6097738;23;20189;-87
2023/06/06 03:16:34;;;;;;;4.37;1.67;;;;;;;16.57;64.66;99445.69;6097750;23;20156;-87
2023/06/06 03:19:03;;;;;;;4.27;1.57;;;;;;;16.58;64.45;99442.09;6097722;23;20232;-87
2023/06/06 03:21:30;;;;;;;4.43;1.77;;;;;;;16.61;63.96;99448.13;6097604;23;20585;-87
2023/06/06 03:23:57;;;;;;;7.37;2.23;;;;;;;16.52;64.83;99431.97;6096461;23;20156;-87
2023/06/06 03:26:26;;;;;;;8.90;1.80;;;;;;;16.52;65.07;99442.53;6097622;23;20254;-87
2023/06/06 03:28:53;;;;;;;3.27;1.63;;;;;;;16.53;64.89;99433.63;6097550;23;20155;-87
2023/06/06 03:31:23;;;;;;;3.30;1.37;;;;;;;16.53;64.74;99428.34;6098242;23;20232;-87
2023/06/06 03:33:50;;;;;;;4.30;1.20;;;;;;;16.56;64.34;99422.81;6097506;23;20167;-87
2023/06/06 03:36:19;;;;;;;4.50;1.47;;;;;;;16.52;64.62;99429.31;6097918;23;20187;-87
2023/06/06 03:38:46;;;;;;;2.97;1.43;;;;;;;16.53;64.58;99433.63;6097842;23;20176;-87
2023/06/06 03:41:13;;;;;;;7.57;1.17;;;;;;;16.51;65.01;99438.16;6097432;23;20160;-87
2023/06/06 03:43:42;;;;;;;4.57;1.60;;;;;;;16.49;65.50;99440.06;6097803;23;20151;-87
2023/06/06 03:46:09;;;;;;;2.93;1.23;;;;;;;16.54;65.75;99429.19;6097482;23;20152;-87
2023/06/06 03:48:35;;;;;;;3.10;1.20;;;;;;;16.57;66.23;99429.81;6096283;23;20165;-87
2023/06/06 03:51:02;;;;;;;3.80;1.37;;;;;;;16.67;66.50;99429.13;6098093;23;20208;-87
2023/06/06 03:53:29;;;;;;;4.83;2.03;;;;;;;16.76;67.39;99439.06;6097200;23;20653;-87
2023/06/06 03:55:58;;;;;;;5.93;1.67;;;;;;;16.84;67.58;99442.00;6096976;23;20166;-87
2023/06/06 03:58:25;;;;;;;3.10;1.20;;;;;;;16.86;67.75;99445.38;6097320;23;20156;-87
2023/06/06 04:00:52;;;;;;;4.90;1.23;;;;;;;16.95;67.85;99439.41;6097547;23;20148;-87
2023/06/06 04:03:19;;;;;;;2.07;0.83;;;;;;;17.00;68.00;99442.56;6097238;23;20147;-87
2023/06/06 04:05:47;;;;;;;3.37;1.30;;;;;;;17.09;68.05;99444.53;6097449;23;20218;-87
2023/06/06 04:08:14;;;;;;;4.27;1.30;;;;;;;17.15;68.17;99441.44;6096101;23;20195;-87
2023/06/06 04:10:39;;;;;;;2.80;1.50;;;;;;;17.19;68.70;99448.16;6097029;23;20152;-87
2023/06/06 04:13:06;;;;;;;4.57;1.23;;;;;;;17.34;68.31;99449.69;6096137;23;20623;-88
2023/06/06 04:15:34;;;;;;;3.60;1.77;;;;;;;17.39;68.28;99459.94;6094912;23;20164;-87
2023/06/06 04:18:01;;;;;;;3.17;1.40;;;;;;;17.47;68.18;99463.72;6095620;23;20517;-87
2023/06/06 04:20:28;;;;;;;6.83;1.40;;;;;;;17.62;67.90;99470.53;6097496;23;20153;-87
2023/06/06 04:22:54;;;;;;;4.20;1.03;;;;;;;17.67;67.55;99460.41;6097107;23;20580;-87
2023/06/06 04:25:19;;;;;;;6.90;1.90;;;;;;;17.70;67.30;99449.59;6096849;23;20231;-87
2023/06/06 04:27:48;;;;;;;3.83;1.73;;;;;;;17.71;67.35;99459.22;6096968;23;20137;-87
2023/06/06 04:30:14;;;;;;;3.57;1.57;;;;;;;17.78;67.09;99457.78;6096958;23;20197;-87
2023/06/06 04:32:40;;;;;;;3.17;1.60;;;;;;;17.80;66.59;99455.88;6097232;23;20185;-87
2023/06/06 04:35:09;;;;;;;5.40;1.60;;;;;;;17.89;66.70;99454.31;6097045;23;20190;-88
2023/06/06 04:37:37;;;;;;;3.83;1.30;;;;;;;17.92;66.83;99458.53;6097704;23;20171;-88
2023/06/06 04:40:06;;;;;;;3.90;1.47;;;;;;;17.92;66.55;99462.03;6095739;23;20160;-87
2023/06/06 04:42:33;;;;;;;3.17;1.07;;;;;;;17.95;66.21;99460.97;6097094;23;20578;-87
2023/06/06 04:45:02;;;;;;;5.50;2.00;;;;;;;17.99;65.57;99457.09;6097266;23;20152;-87
2023/06/06 04:47:30;;;;;;;6.93;1.67;;;;;;;18.01;65.89;99457.81;6095781;23;20175;-87
2023/06/06 04:49:57;;;;;;;2.60;1.20;;;;;;;18.08;65.79;99456.38;6095799;23;20515;-87
2023/06/06 04:52:23;;;;;;;2.70;1.00;;;;;;;18.09;65.74;99460.72;6096843;23;20520;-88
2023/06/06 04:54:51;;;;;;;5.60;1.50;;;;;;;18.23;65.55;99458.69;6096949;23;20642;-87
2023/06/06 04:57:19;;;;;;;4.47;1.23;;;;;;;18.36;64.89;99477.13;6096892;23;20580;-87
2023/06/06 04:59:51;;;;;;;5.73;1.83;;;;;;;18.43;64.89;99471.22;6097253;23;20186;-88
2023/06/06 05:02:22;;;;;;;5.40;2.20;;;;;;;18.60;64.46;99488.50;6097339;23;20133;-87
2023/06/06 05:04:52;;;;;;;5.77;1.57;;;;;;;18.70;64.95;99483.28;6097343;23;20141;-87
2023/06/06 05:07:18;;;;;;;8.47;1.40;;;;;;;18.86;63.66;99489.06;6097313;23;20199;-87
2023/06/06 05:09:43;;;;;;;6.37;1.33;;;;;;;19.10;63.00;99496.84;6096923;23;20160;-88
2023/06/06 05:12:09;;;;;;;3.87;1.87;;;;;;;19.25;62.50;99495.56;6096858;23;20168;-87
2023/06/06 05:14:34;;;;;;;3.70;1.70;;;;;;;19.39;61.97;99487.34;6097204;23;20199;-87
2023/06/06 05:17:00;;;;;;;2.93;1.37;;;;;;;19.55;61.07;99488.59;6096915;23;20148;-88
2023/06/06 05:19:26;;;;;;;2.93;1.30;;;;;;;19.66;60.40;99485.03;6095732;23;20529;-87
2023/06/06 05:21:51;;;;;;;4.30;1.67;;;;;;;19.78;61.12;99483.16;6095796;23;20161;-87
2023/06/06 05:24:16;;;;;;;5.80;1.70;;;;;;;19.94;60.51;99467.56;6097589;23;20144;-87
2023/06/06 05:26:44;;;;;;;5.93;1.70;;;;;;;20.07;60.13;99474.34;6096893;23;20646;-87
2023/06/06 05:29:10;;;;;;;6.10;1.53;;;;;;;20.25;59.54;99465.78;6097105;23;20153;-88
2023/06/06 05:31:37;;;;;;;2.93;1.30;;;;;;;20.29;60.03;99472.53;6096883;23;20156;-87
2023/06/06 05:34:04;;;;;;;10.17;1.80;;;;;;;20.40;59.81;99467.97;6097465;23;20592;-88
2023/06/06 05:36:31;;;;;;;3.20;1.80;;;;;;;20.54;59.33;99477.41;6095559;23;20159;-88
2023/06/06 05:38:57;;;;;;;3.47;1.90;;;;;;;20.60;58.95;99477.69;6097477;23;20155;-87
2023/06/06 05:41:25;;;;;;;2.57;1.17;;;;;;;20.64;60.02;99478.28;6095578;23;20541;-87
2023/06/06 05:43:50;;;;;;;3.67;1.47;;;;;;;20.73;58.88;99478.28;6097214;23;20632;-88
2023/06/06 05:46:18;;;;;;;3.17;1.20;;;;;;;20.81;58.50;99474.94;6097130;23;20148;-87
2023/06/06 05:48:45;;;;;;;3.83;1.37;;;;;;;20.77;58.85;99477.06;6096753;23;20211;-87
2023/06/06 05:51:10;;;;;;;4.30;1.30;;;;;;;20.76;59.01;99472.69;6096767;23;20149;-87
2023/06/06 05:53:46;;;;;;;3.30;1.20;;;;;;;20.90;58.35;99476.81;6097331;23;20323;-87
2023/06/06 05:56:13;;;;;;;4.40;1.30;;;;;;;20.99;57.79;99478.63;6096850;23;20498;-88
2023/06/06 05:58:40;;;;;;;4.83;1.10;;;;;;;21.08;58.42;99490.31;6099159;23;20159;-87
2023/06/06 06:01:08;;;;;;;3.23;1.03;;;;;;;21.16;58.06;99490.47;6098542;23;20472;-88
2023/06/06 06:03:36;;;;;;;5.67;1.30;;;;;;;21.32;57.55;99486.28;6098737;23;20155;-87
2023/06/06 06:06:04;;;;;;;7.67;1.60;;;;;;;21.49;57.22;99481.25;6098517;23;20589;-88
2023/06/06 06:08:34;;;;;;;2.43;1.20;;;;;;;21.61;56.77;99485.44;6098790;23;20160;-87
2023/06/06 06:11:00;;;;;;;8.43;1.20;;;;;;;21.69;55.62;99489.09;6099044;23;20317;-87
2023/06/06 06:13:26;;;;;;;1.40;0.80;;;;;;;21.75;55.93;99487.69;6098318;23;20242;-87
2023/06/06 06:15:53;;;;;;;4.47;0.90;;;;;;;21.86;56.25;99480.38;6097123;23;20164;-87
2023/06/06 06:18:20;;;;;;;2.77;1.00;;;;;;;21.96;57.27;99480.34;6098359;23;20203;-87
2023/06/06 06:20:46;;;;;;;2.70;0.73;;;;;;;22.01;53.34;99475.44;6097122;23;20502;-88
2023/06/06 06:23:13;;;;;;;4.80;1.00;;;;;;;21.99;55.36;99472.91;6096943;23;20152;-88
2023/06/06 06:25:39;;;;;;;5.20;0.80;;;;;;;22.02;55.89;99474.44;6098230;23;20199;-87
2023/06/06 06:28:17;;;;;;;4.77;1.10;;;;;;;22.23;54.75;99466.22;6098163;23;20227;-87
2023/06/06 06:30:44;;;;;;;3.00;1.13;;;;;;;22.29;54.46;99471.81;6098637;23;20216;-86
2023/06/06 06:33:12;;;;;;;1.63;0.83;;;;;;;22.37;55.15;99479.09;6098405;23;20247;-88
2023/06/06 06:35:40;;;;;;;3.73;0.73;;;;;;;22.48;54.83;99477.06;6098109;23;20156;-87
2023/06/06 06:38:07;;;;;;;3.10;1.20;;;;;;;22.76;52.83;99471.78;6098129;23;20215;-87
2023/06/06 06:40:33;;;;;;;2.40;0.90;;;;;;;23.00;52.58;99472.91;6098070;23;20152;-87
2023/06/06 06:42:58;;;;;;;4.07;1.00;;;;;;;23.17;50.35;99472.06;6098400;23;20221;-88
2023/06/06 06:45:26;;;;;;;5.30;1.23;;;;;;;23.23;50.80;99478.63;6098047;23;20545;-87
2023/06/06 06:47:53;;;;;;;5.20;1.50;;;;;;;23.45;52.11;99474.69;6098384;23;20232;-88
2023/06/06 06:50:20;;;;;;;4.10;1.00;;;;;;;23.65;50.29;99468.16;6097926;23;20559;-88
2023/06/06 06:52:47;;;;;;;3.47;1.10;;;;;;;23.78;50.97;99480.16;6098233;23;20211;-87
2023/06/06 06:55:13;;;;;;;2.37;0.90;;;;;;;23.98;49.28;99470.06;6098217;23;20632;-87
2023/06/06 06:57:42;;;;;;;3.07;1.20;;;;;;;24.30;48.05;99472.16;6098280;23;20149;-88
2023/06/06 07:00:12;;;;;;;3.47;1.07;;;;;;;24.30;48.11;99474.81;6098261;23;20152;-88
2023/06/06 07:02:42;;;;;;;4.07;1.10;;;;;;;24.33;46.97;99483.41;6098245;23;20153;-88
2023/06/06 07:05:09;;;;;;;3.20;1.07;;;;;;;24.38;47.81;99474.88;6097117;23;20549;-88
2023/06/06 07:07:56;;;;;;;2.87;0.90;;;;;;;24.74;45.69;99470.16;6098385;23;20149;-88
2023/06/06 07:10:25;;;;;;;6.77;1.47;;;;;;;24.85;46.35;99478.78;6097666;23;20154;-87
2023/06/06 07:12:52;;;;;;;6.93;1.20;;;;;;;25.02;46.29;99474.31;6097713;23;20539;-87
2023/06/06 07:15:20;;;;;;;4.93;1.10;;;;;;;25.20;45.75;99480.41;6098114;23;20163;-88
2023/06/06 07:17:49;;;;;;;5.50;1.97;;;;;;;25.25;44.77;99474.53;6098193;23;20153;-87
2023/06/06 07:20:15;;;;;;;3.10;1.10;;;;;;;25.27;44.19;99476.03;6096556;23;20239;-87
2023/06/06 07:22:41;;;;;;;2.93;1.10;;;;;;;25.35;44.04;99473.38;6097676;23;20564;-87
2023/06/06 07:25:08;;;;;;;2.83;1.00;;;;;;;25.42;44.16;99470.88;6096310;23;20157;-88
2023/06/06 07:27:37;;;;;;;3.30;1.17;;;;;;;25.66;44.35;99470.88;6097508;23;20267;-87
2023/06/06 07:30:14;;;;;;;3.23;1.00;;;;;;;25.82;45.17;99470.88;6098010;23;20156;-88
2023/06/06 07:32:46;;;;;;;2.97;1.00;;;;;;;26.08;43.75;99467.97;6097985;23;20628;-88
2023/06/06 07:35:15;;;;;;;2.90;0.93;;;;;;;26.21;44.23;99463.78;6098192;23;20152;-88
2023/06/06 07:37:40;;;;;;;4.90;1.30;;;;;;;26.59;41.91;99467.53;6097927;23;20154;-88
2023/06/06 07:40:14;;;;;;;2.13;1.00;;;;;;;26.75;42.34;99467.47;6097804;23;20153;-88
2023/06/06 07:42:41;;;;;;;5.97;0.90;;;;;;;26.79;41.76;99467.97;6097876;23;20609;-88
2023/06/06 07:45:07;;;;;;;4.55;1.02;;;;;;;26.82;39.60;99459.56;6097505;23;20152;-88
2023/06/06 07:47:32;;;;;;;2.07;0.77;;;;;;;26.99;40.44;99454.94;6096871;23;20231;-88
2023/06/06 07:49:58;;;;;;;2.43;0.83;;;;;;;27.10;39.84;99463.44;6097760;23;20565;-88
2023/06/06 07:52:25;;;;;;;2.83;1.30;;;;;;;27.10;40.58;99462.56;6097174;23;20152;-88
2023/06/06 07:54:52;;;;;;;4.30;1.20;;;;;;;27.08;41.27;99470.00;6097794;23;20148;-88
2023/06/06 07:57:19;;;;;;;4.47;1.13;;;;;;;27.05;40.29;99465.81;6097244;23;20149;-88
2023/06/06 07:59:46;;;;;;;3.25;0.77;;;;;;;27.10;42.02;99460.72;6096173;23;20156;-88
2023/06/06 08:02:14;;;;;;;2.80;0.93;;;;;;;27.21;39.42;99456.78;6097278;23;20648;-88
2023/06/06 08:04:42;;;;;;;7.22;0.88;;;;;;;27.40;40.18;99448.28;6096032;23;20156;-88
2023/06/06 08:07:13;;;;;;;4.70;1.02;;;;;;;27.60;38.86;99449.47;6097167;23;20227;-89
2023/06/06 08:09:58;;;;;;;;;;;;;;;;;;;;;
2023/06/06 08:12:24;;;;;;;3.53;0.88;;;;;;;27.44;39.36;99455.81;6097679;23;20235;-88
2023/06/06 08:14:49;;;;;;;4.57;1.00;;;;;;;27.60;37.73;99446.75;6097799;23;20247;-88
2023/06/06 08:17:15;;;;;;;2.50;0.90;;;;;;;27.52;38.64;99452.22;6095951;23;20152;-89
2023/06/06 08:19:40;;;;;;;6.70;0.95;;;;;;;27.43;37.16;99454.16;6095866;23;20219;-89
2023/06/06 08:22:06;;;;;;;4.78;0.90;;;;;;;27.48;39.92;99461.69;6096891;23;20497;-89
2023/06/06 08:24:35;;;;;;;4.10;1.40;;;;;;;27.58;37.93;99453.34;6096911;23;20176;-89
2023/06/06 08:27:03;;;;;;;3.38;1.50;;;;;;;27.41;37.22;99444.59;6096950;23;20192;-89
2023/06/06 08:29:30;;;;;;;3.65;1.30;;;;;;;27.61;38.41;99439.53;6096997;23;20172;-88
2023/06/06 08:31:55;;;;;;;2.03;0.93;;;;;;;27.85;37.61;99442.00;6097447;23;20148;-89
2023/06/06 08:34:34;;;;;;;4.18;0.98;;;;;;;27.90;36.17;99436.91;6096911;23;20180;-90
2023/06/06 08:37:00;;;;;;;6.68;1.10;;;;;;;28.05;36.84;99440.47;6097039;23;20132;-89
2023/06/06 08:39:27;;;;;;;3.47;1.70;;;;;;;28.12;36.82;99438.72;6095889;23;20180;-88
2023/06/06 08:41:56;;;;;;;4.13;0.95;;;;;;;28.14;35.63;99443.94;6096975;23;20152;-89
2023/06/06 08:44:25;;;;;;;2.72;1.00;;;;;;;28.21;35.34;99443.00;6097316;23;20164;-89
2023/06/06 08:46:55;;;;;;;3.22;0.90;;;;;;;28.14;36.43;99439.38;6095701;23;20160;-89
2023/06/06 08:49:21;;;;;;;2.28;0.85;;;;;;;28.30;34.72;99441.88;6097202;23;20156;-89
2023/06/06 08:51:51;;;;;;;10.98;1.83;;;;;;;28.34;34.95;99431.56;6096904;23;20160;-89
2023/06/06 08:54:20;;;;;;;2.40;1.02;;;;;;;28.59;34.28;99425.66;6096843;23;20180;-89
2023/06/06 08:56:47;;;;;;;5.45;1.55;;;;;;;28.83;33.88;99423.69;6096911;23;20168;-89
2023/06/06 08:59:14;;;;;;;2.47;1.00;;;;;;;29.05;33.80;99430.81;6096970;23;20152;-89
2023/06/06 09:01:43;;;;;;;2.72;0.90;;;;;;;28.86;34.66;99416.06;6097286;23;20152;-89
2023/06/06 09:04:13;;;;;;;2.50;0.98;;;;;;;28.96;35.05;99418.44;6096537;23;20164;-89
2023/06/06 09:06:44;;;;;;;2.00;0.82;;;;;;;28.96;34.11;99419.28;6097652;23;20152;-89
2023/06/06 09:09:17;;;;;;;4.32;1.05;;;;;;;28.87;34.78;99416.91;6097135;23;20141;-89
2023/06/06 09:12:08;;;;;;;3.92;1.23;;;;;;;28.85;35.79;99422.47;6095808;23;20496;-90
2023/06/06 09:14:35;;;;;;;3.15;1.13;;;;;;;28.87;34.17;99412.34;6095783;23;20188;-89
2023/06/06 09:17:03;;;;;;;3.28;0.90;;;;;;;29.01;33.96;99408.75;6096841;23;20160;-89
2023/06/06 09:20:44;;;;;;;;;;;;;;;;;;;;;
2023/06/06 09:23:17;;;;;;;1.85;0.85;;;;;;;29.10;36.34;99409.47;6094630;23;20152;-90
2023/06/06 09:26:00;;;;;;;;;;;;;;;;;;;;;
2023/06/06 09:29:07;;;;;;;5.40;1.20;;;;;;;29.25;34.93;99410.25;6097671;23;20224;-90
2023/06/06 09:31:44;;;;;;;2.63;1.00;;;;;;;29.30;32.83;99409.72;6095191;23;20184;-90
2023/06/06 09:34:17;;;;;;;6.78;1.55;;;;;;;29.21;33.77;99411.69;6099484;23;20243;-90
2023/06/06 09:36:44;;;;;;;2.95;1.05;;;;;;;29.29;33.82;99410.72;6099156;23;20236;-89
2023/06/06 09:39:14;;;;;;;4.22;1.23;;;;;;;29.41;34.67;99410.00;6097590;23;20477;-89
2023/06/06 09:41:46;;;;;;;4.65;1.52;;;;;;;29.55;32.93;99403.69;6099411;23;20204;-89
2023/06/06 09:44:25;;;;;;;6.30;1.40;;;;;;;29.29;35.79;99386.44;6099050;23;20561;-89
2023/06/06 09:47:02;;;;;;;3.88;1.10;;;;;;;29.32;34.25;99394.97;6099055;23;20219;-89
2023/06/06 09:49:35;;;;;;;2.97;1.02;;;;;;;29.29;35.67;99384.56;6098981;23;20141;-89
2023/06/06 09:52:03;;;;;;;3.50;1.00;;;;;;;29.71;35.27;99383.66;6097452;23;20627;-89
2023/06/06 09:54:30;;;;;;;2.60;1.00;;;;;;;29.92;35.94;99385.50;6098777;23;20180;-89
2023/06/06 09:56:58;;;;;;;2.17;0.85;;;;;;;29.98;34.38;99379.31;6098589;23;20149;-89
2023/06/06 09:59:25;;;;;;;6.03;1.27;;;;;;;30.19;34.05;99376.53;6098443;23;20227;-89
2023/06/06 10:02:05;;;;;;;2.95;1.17;;;;;;;30.29;32.12;99374.28;6098715;23;20148;-89
2023/06/06 10:04:38;;;;;;;2.45;1.08;;;;;;;30.29;34.13;99376.97;6098890;23;20133;-91
2023/06/06 10:07:11;;;;;;;6.15;0.95;;;;;;;30.42;32.51;99377.06;6097032;23;20148;-90
2023/06/06 10:09:39;;;;;;;4.20;1.20;;;;;;;30.43;34.44;99371.44;6097494;23;20153;-90
2023/06/06 10:12:07;;;;;;;4.30;0.93;;;;;;;30.39;33.46;99358.53;6097089;23;20156;-90
2023/06/06 10:14:37;;;;;;;3.03;1.05;;;;;;;30.47;33.19;99361.06;6093499;23;20339;-88
2023/06/06 10:17:04;;;;;;;3.15;1.00;;;;;;;30.57;34.36;99347.97;6097529;23;20569;-89
2023/06/06 10:19:31;;;;;;;4.20;1.42;;;;;;;30.62;33.06;99342.78;6098188;23;20153;-89
2023/06/06 10:21:58;;;;;;;1.58;0.65;;;;;;;30.75;33.47;99347.41;6097966;23;20152;-89
2023/06/06 10:24:27;;;;;;;2.10;1.00;;;;;;;30.74;32.83;99348.47;6097378;23;20557;-90
2023/06/06 10:27:10;;;;;;;3.10;1.17;;;;;;;30.78;31.94;99339.72;6121334;23;20506;-90
2023/06/06 10:30:09;;;;;;;2.85;0.95;;;;;;;30.53;33.17;99341.28;6097112;23;20564;-90
2023/06/06 10:40:49;;;;;;;4.82;1.33;;;;;;;29.96;34.25;99325.41;5982244;24;20256;-91
2023/06/06 10:47:51;;;;;;;5.63;1.17;;;;;;;30.12;33.52;99326.97;5889269;23;20161;-91
2023/06/06 10:50:28;;;;;;;2.33;0.95;;;;;;;30.55;32.72;99327.59;6097866;23;20188;-91
2023/06/06 10:53:15;;;;;;;3.92;0.90;;;;;;;30.60;31.08;99312.41;6097168;23;20275;-91
2023/06/06 10:56:09;;;;;;;;;;;;;;;;;;;;;
2023/06/06 10:58:36;;;;;;;4.70;1.33;;;;;;;30.67;31.83;99326.78;6098060;23;20235;-90
2023/06/06 11:01:30;;;;;;;3.28;1.02;;;;;;;30.69;32.36;99321.97;6098051;23;20156;-90
2023/06/06 11:04:35;;;;;;;2.10;0.77;;;;;;;30.75;30.09;99323.88;6098858;23;20160;-92
2023/06/06 11:07:57;;;;;;;1.75;0.90;;;;;;;30.67;31.98;99315.94;6097849;23;20561;-92
2023/06/06 11:10:30;;;;;;;3.25;0.95;;;;;;;30.56;31.22;99307.59;6088781;23;20164;-91
2023/06/06 11:13:45;;;;;;;;;;;;;;;;;;;;;
2023/06/06 11:16:45;;;;;;;3.40;1.25;;;;;;;30.92;31.72;99308.94;6117489;23;20236;-91
2023/06/06 11:19:19;;;;;;;2.17;0.90;;;;;;;31.15;30.69;99296.88;6098037;23;20160;-90
2023/06/06 11:22:12;;;;;;;8.48;1.48;;;;;;;31.20;31.36;99291.66;6098864;23;20133;-91
2023/06/06 11:25:04;;;;;;;3.25;1.00;;;;;;;31.31;30.01;99291.03;6095224;23;20555;-90
2023/06/06 11:27:44;;;;;;;3.17;1.48;;;;;;;31.29;32.40;99290.44;6096262;23;20179;-91
2023/06/06 11:30:36;;;;;;;;;;;;;;;;;;;;;
2023/06/06 11:41:29;;;;;;;5.22;1.00;;;;;;;31.45;32.04;99274.59;5844792;24;20311;-92
2023/06/06 11:48:03;;;;;;;;;;;;;;;;;;;;;
2023/06/06 12:27:03;;;;;;;;;;;;;;;;;;;;;
2023/06/06 12:33:04;;;;;;;2.25;0.80;;;;;;;31.85;31.36;99218.41;5516269;25;20225;-90
2023/06/06 12:40:33;;;;;;;6.07;1.30;;;;;;;32.23;30.43;99211.13;5469086;26;20213;-92
2023/06/06 13:36:45;;;;;;;;;;;;;;;;;;;;;
2023/06/06 13:40:13;;;;;;;;;;;;;;;;;;;;;
2023/06/06 13:43:31;;;;;;;2.80;1.17;;;;;;;32.61;28.38;99164.16;5933734;24;20234;-90
2023/06/06 13:57:50;;;;;;;3.55;1.33;;;;;;;32.70;28.48;99150.09;5825367;24;20255;-89
2023/06/06 14:01:21;;;;;;;;;;;;;;;;;;;;;
2023/06/06 14:29:29;;;;;;;;;;;;;;;;;;;;;
2023/06/06 14:32:10;;;;;;;2.60;1.10;;;;;;;31.94;30.63;99118.66;5789859;24;20311;-89
2023/06/06 14:37:38;;;;;;;2.70;1.15;;;;;;;31.86;30.68;99119.75;5945761;23;20161;-88
2023/06/06 14:40:18;;;;;;;4.20;1.60;;;;;;;32.00;30.61;99120.50;6109016;23;20477;-89
2023/06/06 14:58:08;;;;;;;;;;;;;;;;;;;;;
2023/06/06 15:01:44;;;;;;;;;;;;;;;;;;;;;
2023/06/06 15:12:27;;;;;;;;;;;;;;;;;;;;;
2023/06/06 15:21:28;;;;;;;;;;;;;;;;;;;;;
2023/06/06 15:24:18;;;;;;;2.47;1.10;;;;;;;31.67;31.58;99106.28;6012434;23;20245;-88
2023/06/06 15:27:09;;;;;;;3.05;1.13;;;;;;;31.81;30.49;99092.47;6029085;23;20180;-88